Time;durP1;ratioP1;P1;durP2;ratioP2;P2;SDS_P1;SDS_P2;PMS_P1;PMS_P2;Temp;Humidity;BMP_temperature;BMP_pressure;BME280_temperature;BME280_humidity;BME280_pressure;Samples;Min_cycle;Max_cycle;Signal;HPM_P1;HPM_P2
2020/12/30 00:04:11;;;;;;;19.05;16.77;;;;;;;;;;4831141;28;20820;-63
2020/12/30 00:06:38;;;;;;;18.15;16.25;;;;;;;;;;4192354;34;20106;-62
2020/12/30 00:09:03;;;;;;;19.25;17.08;;;;;;;;;;4192043;34;20144;-63
2020/12/30 00:11:29;;;;;;;19.87;16.42;;;;;;;;;;4179114;34;20214;-63
2020/12/30 00:13:55;;;;;;;18.85;16.85;;;;;;;;;;4179004;34;20556;-63
2020/12/30 00:16:21;;;;;;;18.10;16.30;;;;;;;;;;4192005;34;20643;-62
2020/12/30 00:18:47;;;;;;;18.20;16.40;;;;;;;;;;4191958;34;20098;-62
2020/12/30 00:21:13;;;;;;;18.90;16.90;;;;;;;;;;4191898;34;20282;-64
2020/12/30 00:23:39;;;;;;;17.95;16.02;;;;;;;;;;4167725;34;20101;-64
2020/12/30 00:26:04;;;;;;;18.52;16.60;;;;;;;;;;4191867;34;20510;-64
2020/12/30 00:28:30;;;;;;;20.23;16.33;;;;;;;;;;4191879;34;20467;-63
2020/12/30 00:30:56;;;;;;;17.80;15.90;;;;;;;;;;4191747;34;20137;-64
2020/12/30 00:33:22;;;;;;;19.02;17.00;;;;;;;;;;4191925;34;20286;-63
2020/12/30 00:35:48;;;;;;;19.65;16.67;;;;;;;;;;4191940;34;20233;-63
2020/12/30 00:38:14;;;;;;;17.52;15.65;;;;;;;;;;4191842;34;20138;-62
2020/12/30 00:40:40;;;;;;;20.35;16.87;;;;;;;;;;4191978;34;20102;-60
2020/12/30 00:43:05;;;;;;;17.87;15.98;;;;;;;;;;4191679;34;20179;-61
2020/12/30 00:45:31;;;;;;;18.15;15.77;;;;;;;;;;4191654;34;20522;-63
2020/12/30 00:47:57;;;;;;;17.45;15.65;;;;;;;;;;4191716;34;20129;-62
2020/12/30 00:50:23;;;;;;;17.42;15.50;;;;;;;;;;4191610;34;20140;-61
2020/12/30 00:52:49;;;;;;;18.05;15.93;;;;;;;;;;4191534;34;20118;-61
2020/12/30 00:55:16;;;;;;;19.70;16.62;;;;;;;;;;4178615;34;20108;-63
2020/12/30 00:57:42;;;;;;;16.75;14.95;;;;;;;;;;4191697;34;20193;-64
2020/12/30 01:00:07;;;;;;;18.73;16.48;;;;;;;;;;4191593;34;20207;-64
2020/12/30 01:02:33;;;;;;;18.58;15.60;;;;;;;;;;4191640;34;20202;-63
2020/12/30 01:04:59;;;;;;;18.70;15.45;;;;;;;;;;4191154;34;20537;-64
2020/12/30 01:07:25;;;;;;;17.27;15.27;;;;;;;;;;4191601;34;20518;-64
2020/12/30 01:09:51;;;;;;;17.55;15.52;;;;;;;;;;4178734;34;20192;-64
2020/12/30 01:12:17;;;;;;;18.30;16.15;;;;;;;;;;4190758;34;20134;-64
2020/12/30 01:14:43;;;;;;;16.77;14.98;;;;;;;;;;4178642;34;20125;-64
2020/12/30 01:17:09;;;;;;;19.08;15.07;;;;;;;;;;4191537;34;20114;-64
2020/12/30 01:19:35;;;;;;;17.33;14.73;;;;;;;;;;4191335;34;20114;-64
2020/12/30 01:22:00;;;;;;;15.98;14.27;;;;;;;;;;4191578;34;20117;-64
2020/12/30 01:24:26;;;;;;;18.83;16.10;;;;;;;;;;4191262;34;20133;-65
2020/12/30 01:26:52;;;;;;;17.62;15.70;;;;;;;;;;4191636;34;20138;-65
2020/12/30 01:29:20;;;;;;;19.20;15.52;;;;;;;;;;4191482;34;20184;-65
2020/12/30 01:31:46;;;;;;;18.73;15.90;;;;;;;;;;4191269;34;20126;-64
2020/12/30 01:34:11;;;;;;;18.87;14.75;;;;;;;;;;4191264;34;20157;-64
2020/12/30 01:36:37;;;;;;;17.67;15.05;;;;;;;;;;4178570;34;20098;-64
2020/12/30 01:39:04;;;;;;;20.83;16.33;;;;;;;;;;4191281;34;20111;-64
2020/12/30 01:41:30;;;;;;;17.55;15.30;;;;;;;;;;4191267;34;20121;-63
2020/12/30 01:44:03;;;;;;;16.40;14.40;;;;;;;;;;4191183;34;20114;-63
2020/12/30 01:46:34;;;;;;;18.20;14.80;;;;;;;;;;4191508;34;20114;-63
2020/12/30 01:49:05;;;;;;;17.98;14.98;;;;;;;;;;4191368;34;20446;-64
2020/12/30 01:51:31;;;;;;;18.45;15.52;;;;;;;;;;4167438;34;20197;-63
2020/12/30 01:53:57;;;;;;;19.70;16.48;;;;;;;;;;4178190;34;20106;-63
2020/12/30 01:56:24;;;;;;;18.60;15.23;;;;;;;;;;4167092;34;20110;-65
2020/12/30 01:58:50;;;;;;;18.25;15.18;;;;;;;;;;4178477;34;20134;-65
2020/12/30 02:01:16;;;;;;;18.33;14.90;;;;;;;;;;4191298;34;20457;-65
2020/12/30 02:03:42;;;;;;;17.70;14.95;;;;;;;;;;4166914;34;20148;-65
2020/12/30 02:06:08;;;;;;;18.70;15.25;;;;;;;;;;4178327;34;20138;-64
2020/12/30 02:08:34;;;;;;;19.05;15.57;;;;;;;;;;4190970;34;20114;-63
2020/12/30 02:11:00;;;;;;;17.60;15.23;;;;;;;;;;4190993;34;20477;-64
2020/12/30 02:13:26;;;;;;;19.42;16.25;;;;;;;;;;4178069;34;20510;-64
2020/12/30 02:15:52;;;;;;;20.25;16.12;;;;;;;;;;4190831;34;20114;-64
2020/12/30 02:18:17;;;;;;;18.70;16.70;;;;;;;;;;4190886;34;20122;-64
2020/12/30 02:20:43;;;;;;;18.45;16.08;;;;;;;;;;4190808;34;20118;-65
2020/12/30 02:23:09;;;;;;;16.90;14.95;;;;;;;;;;4190804;34;20241;-62
2020/12/30 02:25:36;;;;;;;19.62;16.42;;;;;;;;;;4178017;34;20109;-64
2020/12/30 02:28:02;;;;;;;18.70;16.00;;;;;;;;;;4190880;34;20133;-66
2020/12/30 02:30:28;;;;;;;19.08;16.67;;;;;;;;;;4178070;34;20125;-67
2020/12/30 02:32:54;;;;;;;18.33;16.27;;;;;;;;;;4190916;34;20643;-65
2020/12/30 02:35:21;;;;;;;20.98;15.65;;;;;;;;;;4190670;34;20691;-65
2020/12/30 02:37:47;;;;;;;17.73;15.80;;;;;;;;;;4178051;34;20541;-68
2020/12/30 02:40:13;;;;;;;18.58;16.12;;;;;;;;;;4191157;34;20125;-65
2020/12/30 02:42:39;;;;;;;18.23;16.30;;;;;;;;;;4190859;34;20130;-67
2020/12/30 02:45:06;;;;;;;16.42;14.82;;;;;;;;;;4190375;34;20130;-67
2020/12/30 02:47:32;;;;;;;17.25;15.45;;;;;;;;;;4190657;34;20101;-66
2020/12/30 02:49:58;;;;;;;17.92;16.02;;;;;;;;;;4190539;34;20109;-66
2020/12/30 02:52:25;;;;;;;17.20;15.30;;;;;;;;;;4190534;34;20109;-66
2020/12/30 02:54:51;;;;;;;17.23;15.45;;;;;;;;;;4190475;34;20098;-65
2020/12/30 02:57:17;;;;;;;18.02;16.23;;;;;;;;;;4190486;34;20117;-63
2020/12/30 02:59:43;;;;;;;15.88;14.18;;;;;;;;;;4190727;34;20114;-66
2020/12/30 03:02:09;;;;;;;16.98;15.27;;;;;;;;;;4190622;34;20091;-67
2020/12/30 03:04:35;;;;;;;17.12;15.40;;;;;;;;;;4189956;34;20125;-67
2020/12/30 03:07:02;;;;;;;15.88;14.18;;;;;;;;;;4190289;34;20162;-68
2020/12/30 03:09:28;;;;;;;15.77;14.23;;;;;;;;;;4190140;34;20163;-69
2020/12/30 03:11:54;;;;;;;16.33;14.73;;;;;;;;;;4190106;34;20198;-68
2020/12/30 03:14:20;;;;;;;17.40;15.68;;;;;;;;;;4190304;34;20114;-67
2020/12/30 03:16:46;;;;;;;15.70;14.02;;;;;;;;;;4190103;34;20118;-68
2020/12/30 03:19:12;;;;;;;15.02;13.43;;;;;;;;;;4190135;34;20237;-67
2020/12/30 03:21:38;;;;;;;15.93;14.30;;;;;;;;;;4190076;34;20153;-66
2020/12/30 03:24:04;;;;;;;14.63;13.20;;;;;;;;;;4189950;34;20619;-68
2020/12/30 03:26:32;;;;;;;15.55;13.82;;;;;;;;;;4189996;34;20138;-67
2020/12/30 03:29:01;;;;;;;15.43;13.85;;;;;;;;;;4189752;34;20113;-68
2020/12/30 03:31:29;;;;;;;14.93;13.23;;;;;;;;;;4189847;34;20122;-67
2020/12/30 03:33:55;;;;;;;14.63;13.13;;;;;;;;;;4189812;34;20241;-68
2020/12/30 03:36:22;;;;;;;15.40;13.85;;;;;;;;;;4191984;34;20102;-65
2020/12/30 03:38:48;;;;;;;16.25;14.43;;;;;;;;;;4191995;34;20526;-64
2020/12/30 03:41:13;;;;;;;15.25;13.57;;;;;;;;;;4179165;34;20442;-64
2020/12/30 03:43:39;;;;;;;15.75;14.13;;;;;;;;;;4192224;34;20181;-64
2020/12/30 03:46:05;;;;;;;14.68;13.13;;;;;;;;;;4191918;34;20137;-64
2020/12/30 03:48:31;;;;;;;15.02;13.52;;;;;;;;;;4191891;34;20575;-65
2020/12/30 03:50:57;;;;;;;14.65;13.20;;;;;;;;;;4179432;34;20542;-66
2020/12/30 03:53:23;;;;;;;16.00;14.40;;;;;;;;;;4192167;34;20141;-65
2020/12/30 03:55:49;;;;;;;14.32;12.85;;;;;;;;;;4192042;34;20098;-65
2020/12/30 03:58:15;;;;;;;15.63;14.02;;;;;;;;;;4191821;34;20141;-66
2020/12/30 04:00:41;;;;;;;16.35;14.75;;;;;;;;;;4191844;34;20102;-65
2020/12/30 04:03:06;;;;;;;16.42;13.10;;;;;;;;;;4191659;34;20106;-65
2020/12/30 04:05:32;;;;;;;15.13;13.70;;;;;;;;;;4178832;34;20226;-69
2020/12/30 04:07:59;;;;;;;14.20;12.70;;;;;;;;;;4191684;34;20217;-65
2020/12/30 04:10:25;;;;;;;13.77;12.37;;;;;;;;;;4179074;34;20533;-65
2020/12/30 04:12:51;;;;;;;14.52;12.98;;;;;;;;;;4172567;34;20552;-66
2020/12/30 04:15:17;;;;;;;14.45;12.95;;;;;;;;;;4162772;34;20111;-63
2020/12/30 04:17:43;;;;;;;14.82;13.25;;;;;;;;;;4177360;34;20126;-63
2020/12/30 04:20:09;;;;;;;14.48;12.60;;;;;;;;;;4165510;34;20201;-61
2020/12/30 04:22:35;;;;;;;13.73;12.32;;;;;;;;;;4177913;34;20685;-59
2020/12/30 04:25:01;;;;;;;14.40;12.02;;;;;;;;;;4177362;34;20478;-59
2020/12/30 04:27:26;;;;;;;16.02;14.05;;;;;;;;;;4177822;34;20114;-59
2020/12/30 04:29:52;;;;;;;14.50;12.25;;;;;;;;;;4174575;34;20134;-61
2020/12/30 04:32:18;;;;;;;13.43;12.07;;;;;;;;;;4168680;34;20130;-60
2020/12/30 04:34:44;;;;;;;13.35;11.65;;;;;;;;;;4171368;34;20307;-62
2020/12/30 04:37:12;;;;;;;13.20;11.85;;;;;;;;;;4163495;34;20214;-59
2020/12/30 04:39:38;;;;;;;12.95;11.65;;;;;;;;;;4164212;34;20119;-61
2020/12/30 04:42:04;;;;;;;12.48;11.20;;;;;;;;;;4164401;34;20156;-59
2020/12/30 04:44:31;;;;;;;12.68;11.02;;;;;;;;;;4151730;34;20138;-59
2020/12/30 04:46:57;;;;;;;11.82;10.57;;;;;;;;;;4163176;34;20259;-63
2020/12/30 04:49:23;;;;;;;11.73;10.52;;;;;;;;;;4151612;34;20134;-63
2020/12/30 04:51:49;;;;;;;11.45;10.07;;;;;;;;;;4151315;34;20679;-59
2020/12/30 04:54:15;;;;;;;12.10;10.80;;;;;;;;;;4150963;34;20681;-59
2020/12/30 04:56:40;;;;;;;13.88;11.00;;;;;;;;;;4151646;34;20118;-59
2020/12/30 04:59:10;;;;;;;14.02;11.68;;;;;;;;;;4164042;34;20107;-60
2020/12/30 05:02:07;;;;;;;12.43;11.12;;;;;;;;;;4151847;34;20516;-59
2020/12/30 05:04:34;;;;;;;12.80;11.43;;;;;;;;;;4153303;34;20131;-59
2020/12/30 05:07:06;;;;;;;11.93;10.73;;;;;;;;;;4164199;34;20527;-59
2020/12/30 05:09:33;;;;;;;12.68;11.27;;;;;;;;;;4152211;34;20134;-60
2020/12/30 05:12:00;;;;;;;12.68;10.85;;;;;;;;;;4164037;34;20185;-58
2020/12/30 05:14:26;;;;;;;10.85;9.80;;;;;;;;;;4151336;34;20542;-58
2020/12/30 05:16:53;;;;;;;11.20;10.07;;;;;;;;;;4151504;34;20210;-60
2020/12/30 05:19:18;;;;;;;10.95;9.85;;;;;;;;;;4140187;34;20103;-59
2020/12/30 05:21:44;;;;;;;9.75;8.73;;;;;;;;;;4165356;34;20117;-60
2020/12/30 05:24:10;;;;;;;8.90;8.00;;;;;;;;;;4174173;34;20598;-63
2020/12/30 05:26:36;;;;;;;8.18;7.37;;;;;;;;;;4163884;34;20105;-61
2020/12/30 05:29:03;;;;;;;7.97;7.22;;;;;;;;;;4175865;34;20154;-61
2020/12/30 05:31:29;;;;;;;7.60;6.90;;;;;;;;;;4177342;34;20186;-62
2020/12/30 05:33:55;;;;;;;8.52;7.72;;;;;;;;;;4177335;34;20122;-62
2020/12/30 05:36:24;;;;;;;8.82;7.93;;;;;;;;;;4177095;34;20635;-62
2020/12/30 05:38:50;;;;;;;9.20;8.30;;;;;;;;;;4164748;34;20129;-64
2020/12/30 05:41:20;;;;;;;11.75;9.88;;;;;;;;;;4177143;34;20678;-62
2020/12/30 05:43:46;;;;;;;9.95;8.20;;;;;;;;;;4164495;34;20104;-63
2020/12/30 05:46:24;;;;;;;8.05;7.25;;;;;;;;;;4152968;34;20222;-62
2020/12/30 05:48:52;;;;;;;8.30;7.50;;;;;;;;;;4177099;34;20116;-63
2020/12/30 05:51:28;;;;;;;10.48;7.22;;;;;;;;;;4177002;34;20169;-62
2020/12/30 05:54:12;;;;;;;7.25;6.53;;;;;;;;;;4176878;34;20241;-63
2020/12/30 05:56:39;;;;;;;7.85;7.15;;;;;;;;;;4164439;34;20098;-62
2020/12/30 05:59:05;;;;;;;6.72;6.12;;;;;;;;;;4176769;34;20133;-61
2020/12/30 06:01:34;;;;;;;7.57;6.85;;;;;;;;;;4177023;34;20483;-60
2020/12/30 06:04:14;;;;;;;7.50;6.80;;;;;;;;;;4164675;34;20209;-61
2020/12/30 06:06:42;;;;;;;7.12;6.43;;;;;;;;;;4164501;34;20536;-61
2020/12/30 06:09:08;;;;;;;7.57;6.87;;;;;;;;;;4164383;34;20734;-61
2020/12/30 06:11:34;;;;;;;7.30;6.60;;;;;;;;;;4164310;34;20213;-61
2020/12/30 06:14:00;;;;;;;9.15;7.37;;;;;;;;;;4175680;34;20097;-61
2020/12/30 06:16:29;;;;;;;7.72;7.03;;;;;;;;;;4150844;34;20173;-61
2020/12/30 06:18:58;;;;;;;7.57;6.87;;;;;;;;;;4163203;34;20141;-62
2020/12/30 06:21:27;;;;;;;8.05;7.25;;;;;;;;;;4151249;34;20090;-60
2020/12/30 06:23:55;;;;;;;6.70;6.10;;;;;;;;;;4163301;34;20095;-61
2020/12/30 06:26:24;;;;;;;6.82;6.22;;;;;;;;;;4153143;34;20214;-61
2020/12/30 06:28:50;;;;;;;7.25;6.55;;;;;;;;;;4153229;34;20113;-62
2020/12/30 06:31:15;;;;;;;6.55;5.95;;;;;;;;;;4152851;34;20133;-64
2020/12/30 06:33:41;;;;;;;6.75;6.07;;;;;;;;;;4164059;34;20110;-68
2020/12/30 06:36:07;;;;;;;7.37;6.68;;;;;;;;;;4163814;34;20586;-68
2020/12/30 06:38:36;;;;;;;7.00;6.30;;;;;;;;;;4176851;34;20130;-70
2020/12/30 06:41:03;;;;;;;6.90;6.30;;;;;;;;;;4176589;34;20130;-69
2020/12/30 06:43:48;;;;;;;7.45;6.75;;;;;;;;;;4176775;34;20206;-70
2020/12/30 06:46:15;;;;;;;7.43;6.72;;;;;;;;;;4174878;34;20150;-68
2020/12/30 06:48:59;;;;;;;7.30;6.70;;;;;;;;;;4163004;34;20464;-68
2020/12/30 06:51:25;;;;;;;7.65;6.95;;;;;;;;;;4163164;34;20544;-66
2020/12/30 06:53:54;;;;;;;8.40;7.60;;;;;;;;;;4162955;34;20141;-65
2020/12/30 06:56:44;;;;;;;7.65;6.95;;;;;;;;;;4163025;34;20552;-68
2020/12/30 06:59:17;;;;;;;7.10;6.50;;;;;;;;;;4162892;34;20136;-66
2020/12/30 07:01:55;;;;;;;8.10;6.97;;;;;;;;;;4162781;34;20548;-69
2020/12/30 07:04:22;;;;;;;7.60;6.90;;;;;;;;;;4174366;34;20103;-64
2020/12/30 07:06:48;;;;;;;9.32;8.48;;;;;;;;;;4171128;34;20096;-65
2020/12/30 07:09:14;;;;;;;8.82;8.02;;;;;;;;;;4162985;34;20109;-66
2020/12/30 07:11:40;;;;;;;7.82;7.12;;;;;;;;;;4152466;34;20090;-66
2020/12/30 07:14:07;;;;;;;8.10;7.30;;;;;;;;;;4165063;34;20107;-66
2020/12/30 07:16:34;;;;;;;8.95;8.10;;;;;;;;;;4164678;34;20103;-66
2020/12/30 07:19:00;;;;;;;9.82;8.93;;;;;;;;;;4164769;34;20118;-68
2020/12/30 07:21:26;;;;;;;11.00;9.88;;;;;;;;;;4164891;34;20542;-65
2020/12/30 07:23:54;;;;;;;11.73;10.57;;;;;;;;;;4164710;34;20237;-65
2020/12/30 07:26:21;;;;;;;9.77;8.88;;;;;;;;;;4152085;34;20115;-66
2020/12/30 07:28:48;;;;;;;11.90;10.70;;;;;;;;;;4152426;34;20114;-66
2020/12/30 07:31:21;;;;;;;9.07;8.18;;;;;;;;;;4164873;34;20204;-64
2020/12/30 07:33:46;;;;;;;7.78;6.82;;;;;;;;;;4164794;34;20202;-64
2020/12/30 07:36:12;;;;;;;8.60;7.80;;;;;;;;;;4166008;34;20213;-66
2020/12/30 07:38:38;;;;;;;10.40;9.10;;;;;;;;;;4152401;34;20153;-66
2020/12/30 07:41:08;;;;;;;8.23;7.18;;;;;;;;;;4164461;34;20586;-67
2020/12/30 07:43:52;;;;;;;7.25;6.57;;;;;;;;;;4164711;34;20139;-66
2020/12/30 07:46:20;;;;;;;7.80;7.10;;;;;;;;;;4153155;34;20091;-67
2020/12/30 07:48:46;;;;;;;8.48;7.68;;;;;;;;;;4152085;34;20187;-69
2020/12/30 07:51:13;;;;;;;10.35;9.35;;;;;;;;;;4151714;34;20207;-65
2020/12/30 07:53:39;;;;;;;7.97;7.28;;;;;;;;;;4164336;34;20131;-67
2020/12/30 07:56:05;;;;;;;7.20;6.60;;;;;;;;;;4164558;34;20147;-69
2020/12/30 07:58:31;;;;;;;7.40;6.70;;;;;;;;;;4151996;34;20133;-68
2020/12/30 08:00:57;;;;;;;10.27;9.27;;;;;;;;;;4164221;34;20133;-67
2020/12/30 08:03:23;;;;;;;7.65;6.85;;;;;;;;;;4152190;34;20142;-66
2020/12/30 08:05:50;;;;;;;9.05;8.18;;;;;;;;;;4164589;34;20131;-67
2020/12/30 08:08:19;;;;;;;9.50;8.70;;;;;;;;;;4164878;34;20186;-67
2020/12/30 08:10:48;;;;;;;8.35;7.45;;;;;;;;;;4178033;34;20145;-67
2020/12/30 08:13:15;;;;;;;8.15;7.35;;;;;;;;;;4176522;34;20087;-68
2020/12/30 08:15:51;;;;;;;9.23;8.27;;;;;;;;;;4177909;34;20202;-69
2020/12/30 08:18:17;;;;;;;8.98;7.28;;;;;;;;;;4178026;34;20110;-69
2020/12/30 08:20:43;;;;;;;8.70;7.90;;;;;;;;;;4177699;34;20331;-68
2020/12/30 08:23:09;;;;;;;8.80;8.00;;;;;;;;;;4177642;34;20165;-64
2020/12/30 08:25:35;;;;;;;7.60;6.90;;;;;;;;;;4165246;34;20130;-66
2020/12/30 08:28:05;;;;;;;8.10;7.30;;;;;;;;;;4177829;34;20190;-64
2020/12/30 08:30:34;;;;;;;7.90;7.10;;;;;;;;;;4177812;34;20105;-67
2020/12/30 08:33:08;;;;;;;7.97;7.28;;;;;;;;;;4177567;34;20129;-70
2020/12/30 08:35:38;;;;;;;6.90;6.30;;;;;;;;;;4154740;34;20141;-68
2020/12/30 08:38:12;;;;;;;8.32;7.32;;;;;;;;;;4165659;34;20130;-70
2020/12/30 08:40:39;;;;;;;8.20;7.43;;;;;;;;;;4165346;34;20194;-68
2020/12/30 08:43:07;;;;;;;7.62;6.95;;;;;;;;;;4164932;34;20218;-65
2020/12/30 08:45:34;;;;;;;6.80;6.20;;;;;;;;;;4178005;34;20126;-68
2020/12/30 08:48:19;;;;;;;7.35;6.55;;;;;;;;;;4177881;34;20178;-70
2020/12/30 08:50:46;;;;;;;6.85;6.03;;;;;;;;;;4177821;34;20225;-69
2020/12/30 08:53:12;;;;;;;8.63;6.97;;;;;;;;;;4177522;34;20099;-70
2020/12/30 08:55:38;;;;;;;7.10;6.40;;;;;;;;;;4177690;34;20511;-66
2020/12/30 08:58:04;;;;;;;6.57;5.87;;;;;;;;;;4164919;34;20106;-65
2020/12/30 09:00:35;;;;;;;5.90;5.40;;;;;;;;;;4164574;34;20386;-65
2020/12/30 09:03:30;;;;;;;6.15;5.57;;;;;;;;;;4177279;34;20546;-64
2020/12/30 09:06:00;;;;;;;6.03;5.43;;;;;;;;;;4163018;34;20118;-70
2020/12/30 09:08:28;;;;;;;5.62;5.12;;;;;;;;;;4177702;34;20118;-68
2020/12/30 09:10:54;;;;;;;5.25;4.85;;;;;;;;;;4177488;34;20110;-69
2020/12/30 09:13:38;;;;;;;5.57;5.07;;;;;;;;;;4153880;34;20098;-68
2020/12/30 09:16:04;;;;;;;6.97;6.37;;;;;;;;;;4177482;34;20107;-69
2020/12/30 09:18:31;;;;;;;6.18;5.68;;;;;;;;;;4177641;34;20101;-68
2020/12/30 09:20:57;;;;;;;6.18;5.57;;;;;;;;;;4177238;34;20530;-69
2020/12/30 09:23:23;;;;;;;7.20;6.50;;;;;;;;;;4177447;34;20202;-68
2020/12/30 09:25:50;;;;;;;6.32;5.68;;;;;;;;;;4175942;34;20131;-69
2020/12/30 09:28:16;;;;;;;6.35;5.75;;;;;;;;;;4177037;34;20118;-71
2020/12/30 09:30:42;;;;;;;6.40;5.80;;;;;;;;;;4177402;34;20529;-69
2020/12/30 09:33:24;;;;;;;6.75;6.07;;;;;;;;;;4176540;34;20106;-69
2020/12/30 09:35:50;;;;;;;6.97;6.35;;;;;;;;;;4164469;34;20141;-69
2020/12/30 09:38:21;;;;;;;5.90;5.40;;;;;;;;;;4177573;34;20278;-70
2020/12/30 09:40:48;;;;;;;5.60;5.10;;;;;;;;;;4177433;34;20117;-69
2020/12/30 09:43:18;;;;;;;6.85;6.25;;;;;;;;;;4164681;34;20154;-69
2020/12/30 09:45:45;;;;;;;7.70;7.00;;;;;;;;;;4164672;34;20094;-68
2020/12/30 09:48:19;;;;;;;8.32;7.47;;;;;;;;;;4177254;34;20110;-69
2020/12/30 09:50:49;;;;;;;7.03;6.32;;;;;;;;;;4177300;34;20122;-67
2020/12/30 09:53:15;;;;;;;7.22;6.53;;;;;;;;;;4177095;34;20528;-68
2020/12/30 09:55:48;;;;;;;5.28;4.80;;;;;;;;;;4176130;34;20605;-68
2020/12/30 09:58:15;;;;;;;6.15;5.62;;;;;;;;;;4177079;34;20171;-68
2020/12/30 10:00:41;;;;;;;15.05;12.77;;;;;;;;;;4176925;34;20118;-65
2020/12/30 10:03:07;;;;;;;19.73;13.98;;;;;;;;;;4164727;34;20191;-71
2020/12/30 10:05:33;;;;;;;6.40;5.65;;;;;;;;;;4176122;34;20215;-74
2020/12/30 10:07:59;;;;;;;6.28;5.68;;;;;;;;;;4175685;34;20518;-71
2020/12/30 10:10:25;;;;;;;5.75;4.90;;;;;;;;;;4163738;34;20145;-71
2020/12/30 10:12:51;;;;;;;4.72;4.32;;;;;;;;;;4176706;34;20132;-72
2020/12/30 10:15:17;;;;;;;6.72;5.32;;;;;;;;;;4163854;34;20219;-71
2020/12/30 10:17:43;;;;;;;4.93;4.50;;;;;;;;;;4163936;34;20210;-69
2020/12/30 10:20:10;;;;;;;5.03;4.53;;;;;;;;;;4163782;34;20539;-69
2020/12/30 10:22:39;;;;;;;9.30;8.40;;;;;;;;;;4176468;34;20121;-69
2020/12/30 10:25:06;;;;;;;11.98;10.85;;;;;;;;;;4176603;34;20228;-68
2020/12/30 10:27:32;;;;;;;8.88;8.07;;;;;;;;;;4164166;34;20118;-68
2020/12/30 10:29:58;;;;;;;7.75;7.05;;;;;;;;;;4163767;34;20225;-66
2020/12/30 10:32:24;;;;;;;8.32;7.62;;;;;;;;;;4152496;34;20138;-66
2020/12/30 10:34:50;;;;;;;9.30;8.50;;;;;;;;;;4176523;34;20122;-66
2020/12/30 10:37:16;;;;;;;5.57;5.07;;;;;;;;;;4176395;34;20133;-66
2020/12/30 10:39:44;;;;;;;6.43;5.87;;;;;;;;;;4163699;34;20142;-66
2020/12/30 10:42:10;;;;;;;5.43;4.53;;;;;;;;;;4176635;34;20222;-66
2020/12/30 10:44:36;;;;;;;5.72;5.20;;;;;;;;;;4162404;34;20111;-65
2020/12/30 10:47:02;;;;;;;5.18;4.68;;;;;;;;;;4176231;34;20505;-65
2020/12/30 10:49:29;;;;;;;6.62;5.25;;;;;;;;;;4176318;34;20133;-66
2020/12/30 10:51:54;;;;;;;9.98;8.98;;;;;;;;;;4176099;34;20456;-66
2020/12/30 10:54:20;;;;;;;16.48;14.87;;;;;;;;;;4176144;34;20106;-66
2020/12/30 10:56:47;;;;;;;13.70;12.40;;;;;;;;;;4174987;34;20173;-66
2020/12/30 10:59:14;;;;;;;9.95;9.05;;;;;;;;;;4176091;34;20102;-65
2020/12/30 11:01:40;;;;;;;7.20;6.60;;;;;;;;;;4176437;34;20126;-65
2020/12/30 11:04:05;;;;;;;6.50;5.90;;;;;;;;;;4176151;34;20379;-65
2020/12/30 11:06:31;;;;;;;6.20;5.70;;;;;;;;;;4176651;34;20191;-66
2020/12/30 11:08:57;;;;;;;5.50;5.00;;;;;;;;;;4163975;34;20114;-65
2020/12/30 11:11:23;;;;;;;7.05;6.35;;;;;;;;;;4176828;34;20120;-63
2020/12/30 11:13:49;;;;;;;5.22;4.72;;;;;;;;;;4176544;34;20137;-64
2020/12/30 11:16:15;;;;;;;5.75;5.25;;;;;;;;;;4176856;34;20118;-66
2020/12/30 11:18:41;;;;;;;7.25;6.55;;;;;;;;;;4176921;34;20153;-66
2020/12/30 11:21:07;;;;;;;10.82;9.82;;;;;;;;;;4176463;34;20257;-64
2020/12/30 11:23:33;;;;;;;11.12;10.02;;;;;;;;;;4152658;34;20126;-65
2020/12/30 11:25:59;;;;;;;8.43;7.62;;;;;;;;;;4176521;34;20227;-64
2020/12/30 11:28:25;;;;;;;9.10;8.20;;;;;;;;;;4176799;34;20193;-64
2020/12/30 11:30:51;;;;;;;7.32;6.62;;;;;;;;;;4176661;34;20137;-64
2020/12/30 11:33:17;;;;;;;9.18;7.28;;;;;;;;;;4176386;34;20508;-65
2020/12/30 11:35:44;;;;;;;5.43;4.93;;;;;;;;;;4176318;34;20141;-65
2020/12/30 11:38:10;;;;;;;4.93;4.53;;;;;;;;;;4176537;34;20117;-64
2020/12/30 11:40:38;;;;;;;5.93;4.35;;;;;;;;;;4163539;34;20122;-65
2020/12/30 11:43:04;;;;;;;5.10;4.45;;;;;;;;;;4163993;34;20090;-66
2020/12/30 11:45:30;;;;;;;5.15;4.62;;;;;;;;;;4176223;34;20130;-65
2020/12/30 11:47:58;;;;;;;5.20;4.70;;;;;;;;;;4176256;34;20195;-65
2020/12/30 11:50:24;;;;;;;5.55;4.87;;;;;;;;;;4176162;34;20099;-65
2020/12/30 11:52:50;;;;;;;12.25;10.35;;;;;;;;;;4163734;34;20106;-65
2020/12/30 11:55:16;;;;;;;14.73;13.25;;;;;;;;;;4163909;34;20126;-65
2020/12/30 11:57:42;;;;;;;12.50;11.20;;;;;;;;;;4178624;34;20114;-65
2020/12/30 12:00:09;;;;;;;18.67;16.80;;;;;;;;;;4178174;34;20206;-65
2020/12/30 12:02:35;;;;;;;14.73;13.30;;;;;;;;;;4178332;34;20178;-65
2020/12/30 12:05:01;;;;;;;9.25;8.35;;;;;;;;;;4165656;34;20102;-66
2020/12/30 12:07:30;;;;;;;10.13;9.23;;;;;;;;;;4178609;34;20469;-66
2020/12/30 12:09:59;;;;;;;8.57;7.78;;;;;;;;;;4154362;34;20110;-66
2020/12/30 12:12:25;;;;;;;9.60;8.70;;;;;;;;;;4154505;34;20128;-66
2020/12/30 12:14:51;;;;;;;12.80;11.50;;;;;;;;;;4178114;34;20125;-66
2020/12/30 12:17:17;;;;;;;13.02;11.02;;;;;;;;;;4165483;34;20233;-67
2020/12/30 12:19:43;;;;;;;22.17;17.23;;;;;;;;;;4165438;34;20114;-67
2020/12/30 12:22:09;;;;;;;23.27;18.15;;;;;;;;;;4178215;34;20214;-65
2020/12/30 12:24:35;;;;;;;25.40;18.98;;;;;;;;;;4178096;34;20126;-67
2020/12/30 12:27:01;;;;;;;23.52;18.55;;;;;;;;;;4178066;34;20180;-65
2020/12/30 12:29:36;;;;;;;31.10;23.48;;;;;;;;;;4178058;34;20118;-66
2020/12/30 12:32:09;;;;;;;28.67;22.10;;;;;;;;;;4177981;34;20209;-66
2020/12/30 12:34:39;;;;;;;23.30;18.23;;;;;;;;;;4178221;34;20098;-66
2020/12/30 12:37:06;;;;;;;25.25;22.55;;;;;;;;;;4177922;34;20517;-67
2020/12/30 12:39:36;;;;;;;20.15;18.05;;;;;;;;;;4178012;34;20161;-66
2020/12/30 12:42:02;;;;;;;22.87;20.37;;;;;;;;;;4178004;34;20203;-66
2020/12/30 12:44:29;;;;;;;26.62;21.20;;;;;;;;;;4165296;34;20226;-66
2020/12/30 12:46:55;;;;;;;23.35;19.85;;;;;;;;;;4177750;34;20554;-67
2020/12/30 12:49:24;;;;;;;31.70;26.17;;;;;;;;;;4177836;34;20638;-66
2020/12/30 12:51:51;;;;;;;26.27;20.65;;;;;;;;;;4165041;34;20110;-66
2020/12/30 12:54:17;;;;;;;29.15;23.60;;;;;;;;;;4177817;34;20214;-65
2020/12/30 12:56:43;;;;;;;30.00;24.87;;;;;;;;;;4165095;34;20519;-68
2020/12/30 12:59:09;;;;;;;15.50;13.50;;;;;;;;;;4177575;34;20097;-68
2020/12/30 13:01:35;;;;;;;11.50;10.30;;;;;;;;;;4165204;34;20110;-65
2020/12/30 13:04:01;;;;;;;13.13;10.60;;;;;;;;;;4163059;34;20118;-69
2020/12/30 13:06:33;;;;;;;16.77;14.82;;;;;;;;;;4172967;34;20510;-70
2020/12/30 13:09:00;;;;;;;12.52;11.25;;;;;;;;;;4172677;34;20114;-66
2020/12/30 13:11:26;;;;;;;11.00;9.98;;;;;;;;;;4163967;34;20444;-64
2020/12/30 13:13:52;;;;;;;10.13;9.23;;;;;;;;;;4167525;34;20103;-63
2020/12/30 13:16:18;;;;;;;11.05;10.02;;;;;;;;;;4177449;34;20117;-66
2020/12/30 13:18:45;;;;;;;8.48;7.68;;;;;;;;;;4177069;34;20565;-66
2020/12/30 13:21:11;;;;;;;12.00;10.80;;;;;;;;;;4177465;34;20146;-66
2020/12/30 13:23:37;;;;;;;11.85;10.00;;;;;;;;;;4187427;34;20691;-67
2020/12/30 13:26:03;;;;;;;12.37;11.10;;;;;;;;;;4177146;34;20122;-66
2020/12/30 13:28:29;;;;;;;6.72;6.12;;;;;;;;;;4164602;34;20113;-65
2020/12/30 13:30:55;;;;;;;5.87;5.37;;;;;;;;;;4177496;34;20235;-66
2020/12/30 13:33:21;;;;;;;6.22;5.62;;;;;;;;;;4177156;34;20213;-67
2020/12/30 13:35:47;;;;;;;6.30;5.80;;;;;;;;;;4177502;34;20102;-67
2020/12/30 13:38:13;;;;;;;8.63;7.82;;;;;;;;;;4177218;34;20522;-67
2020/12/30 13:40:39;;;;;;;8.07;7.37;;;;;;;;;;4177300;34;20114;-68
2020/12/30 13:43:05;;;;;;;7.62;6.93;;;;;;;;;;4177482;34;20103;-66
2020/12/30 13:45:32;;;;;;;8.82;7.80;;;;;;;;;;4177136;34;20532;-66
2020/12/30 13:47:58;;;;;;;8.60;7.70;;;;;;;;;;4177628;34;20197;-66
2020/12/30 13:50:23;;;;;;;8.40;7.62;;;;;;;;;;4164436;34;20503;-66
2020/12/30 13:52:49;;;;;;;7.50;6.80;;;;;;;;;;4164537;34;20146;-66
2020/12/30 13:55:15;;;;;;;6.72;6.12;;;;;;;;;;4177216;34;20153;-65
2020/12/30 13:57:41;;;;;;;7.72;6.93;;;;;;;;;;4177004;34;20149;-67
2020/12/30 14:00:07;;;;;;;6.53;5.93;;;;;;;;;;4176836;34;20125;-64
2020/12/30 14:02:33;;;;;;;7.12;6.45;;;;;;;;;;4164629;34;20189;-65
2020/12/30 14:04:59;;;;;;;6.82;6.12;;;;;;;;;;4176616;34;20146;-64
2020/12/30 14:07:27;;;;;;;6.60;6.00;;;;;;;;;;4176926;34;20106;-64
2020/12/30 14:09:53;;;;;;;6.65;6.00;;;;;;;;;;4176922;34;20107;-64
2020/12/30 14:12:19;;;;;;;7.20;6.50;;;;;;;;;;4176874;34;20222;-65
2020/12/30 14:14:45;;;;;;;8.27;7.47;;;;;;;;;;4176875;34;20481;-66
2020/12/30 14:17:11;;;;;;;8.45;7.07;;;;;;;;;;4176988;34;20114;-65
2020/12/30 14:19:37;;;;;;;6.80;6.12;;;;;;;;;;4176543;34;20148;-63
2020/12/30 14:22:03;;;;;;;7.57;6.82;;;;;;;;;;4176899;34;20214;-63
2020/12/30 14:24:28;;;;;;;8.23;7.43;;;;;;;;;;4176702;34;20094;-66
2020/12/30 14:26:58;;;;;;;8.10;7.30;;;;;;;;;;4177126;34;20482;-66
2020/12/30 14:29:24;;;;;;;7.28;6.55;;;;;;;;;;4176913;34;20271;-62
2020/12/30 14:31:50;;;;;;;7.90;7.10;;;;;;;;;;4164159;34;20157;-63
2020/12/30 14:34:16;;;;;;;6.87;6.18;;;;;;;;;;4176690;34;20136;-62